createdAt,value
2023-03-12T00:02:28.596Z,0.80
2023-03-12T00:04:57.302Z,0.80
2023-03-12T00:07:25.412Z,0.78
2023-03-12T00:09:53.350Z,0.71
2023-03-12T00:12:21.253Z,0.72
2023-03-12T00:14:49.156Z,0.67
2023-03-12T00:17:17.037Z,0.65
2023-03-12T00:19:46.431Z,0.73
2023-03-12T00:22:16.774Z,0.68
2023-03-12T00:24:44.706Z,0.66
2023-03-12T00:27:12.632Z,0.69
2023-03-12T00:29:40.517Z,0.65
2023-03-12T00:32:09.323Z,0.68
2023-03-12T00:34:37.221Z,0.64
2023-03-12T00:37:08.070Z,0.54
2023-03-12T00:39:36.386Z,0.60
2023-03-12T00:42:04.529Z,0.49
2023-03-12T00:44:32.435Z,0.55
2023-03-12T00:47:00.382Z,0.55
2023-03-12T00:49:28.326Z,0.57
2023-03-12T00:51:56.335Z,0.48
2023-03-12T00:54:25.620Z,0.29
2023-03-12T00:56:53.547Z,0.19
2023-03-12T00:59:21.564Z,0.13
2023-03-12T01:01:49.516Z,0.07
2023-03-12T01:04:18.158Z,0.12
2023-03-12T01:06:46.194Z,0.06
2023-03-12T01:09:14.256Z,0.07
2023-03-12T01:11:43.568Z,0.06
2023-03-12T01:14:11.644Z,0.09
2023-03-12T01:16:39.638Z,0.07
2023-03-12T01:19:07.620Z,0.16
2023-03-12T01:21:35.498Z,0.20
2023-03-12T01:24:03.451Z,0.11
2023-03-12T01:26:31.426Z,0.12
2023-03-12T01:29:00.710Z,0.13
2023-03-12T01:31:28.623Z,0.09
2023-03-12T01:33:56.581Z,0.05
2023-03-12T01:36:26.029Z,-0.01
2023-03-12T01:38:55.035Z,0.00
2023-03-12T01:41:23.976Z,0.10
2023-03-12T01:43:52.363Z,0.16
2023-03-12T01:46:27.935Z,0.24
2023-03-12T01:48:59.056Z,0.20
2023-03-12T01:51:28.739Z,0.20
2023-03-12T01:54:00.479Z,0.23
2023-03-12T01:56:29.980Z,0.17
2023-03-12T01:59:00.558Z,0.26
2023-03-12T02:01:30.736Z,0.29
2023-03-12T02:04:01.227Z,0.32
2023-03-12T02:06:34.539Z,0.28
2023-03-12T02:09:03.537Z,0.31
2023-03-12T02:11:31.573Z,0.39
2023-03-12T02:13:59.483Z,0.41
2023-03-12T02:16:29.124Z,0.48
2023-03-12T02:18:58.625Z,0.46
2023-03-12T02:21:27.886Z,0.44
2023-03-12T02:24:01.612Z,0.46
2023-03-12T02:26:31.676Z,0.46
2023-03-12T02:29:01.052Z,0.50
2023-03-12T02:31:33.244Z,0.49
2023-03-12T02:34:01.726Z,0.50
2023-03-12T02:36:29.677Z,0.54
2023-03-12T02:38:57.905Z,0.51
2023-03-12T02:41:28.203Z,0.49
2023-03-12T02:44:02.726Z,0.51
2023-03-12T02:46:31.942Z,0.42
2023-03-12T02:49:00.109Z,0.43
2023-03-12T02:51:28.120Z,0.45
2023-03-12T02:53:56.014Z,0.54
2023-03-12T02:56:24.402Z,0.36
2023-03-12T02:58:52.405Z,0.26
2023-03-12T03:01:22.014Z,0.28
2023-03-12T03:03:50.120Z,0.16
2023-03-12T03:06:18.487Z,0.17
2023-03-12T03:08:46.482Z,0.17
2023-03-12T03:11:14.580Z,0.10
2023-03-12T03:13:42.481Z,0.18
2023-03-12T03:16:12.312Z,0.23
2023-03-12T03:18:42.182Z,0.23
2023-03-12T03:21:11.024Z,0.05
2023-03-12T03:23:38.951Z,-0.02
2023-03-12T03:26:06.864Z,0.09
2023-03-12T03:28:34.798Z,0.12
2023-03-12T03:31:02.945Z,0.06
2023-03-12T03:33:31.990Z,0.20
2023-03-12T03:36:02.324Z,0.09
2023-03-12T03:38:33.720Z,0.05
2023-03-12T03:41:01.869Z,0.06
2023-03-12T03:43:29.971Z,0.10
2023-03-12T03:45:58.670Z,-0.10
2023-03-12T03:48:26.673Z,-0.28
2023-03-12T03:50:54.752Z,-0.27
2023-03-12T03:53:24.035Z,-0.24
2023-03-12T03:55:51.954Z,-0.05
2023-03-12T03:58:19.872Z,-0.21
2023-03-12T04:00:47.849Z,-0.30
2023-03-12T04:03:15.816Z,-0.25
2023-03-12T04:05:45.329Z,-0.11
2023-03-12T04:08:14.226Z,-0.02
2023-03-12T04:10:43.527Z,0.14
2023-03-12T04:13:11.429Z,0.10
2023-03-12T04:15:39.385Z,0.02
2023-03-12T04:18:07.354Z,-0.06
2023-03-12T04:20:35.290Z,-0.35
2023-03-12T04:23:03.179Z,-0.25
2023-03-12T04:25:31.712Z,-0.19
2023-03-12T04:28:01.331Z,-0.05
2023-03-12T04:30:29.276Z,-0.09
2023-03-12T04:32:57.269Z,0.00
2023-03-12T04:35:25.623Z,-0.05
2023-03-12T04:37:53.588Z,-0.05
2023-03-12T04:40:21.855Z,-0.05
2023-03-12T04:42:49.813Z,-0.06
2023-03-12T04:45:19.346Z,-0.15
2023-03-12T04:47:47.233Z,-0.08
2023-03-12T04:50:15.349Z,-0.04
2023-03-12T04:52:43.260Z,-0.01
2023-03-12T04:55:11.439Z,-0.18
2023-03-12T04:57:39.373Z,-0.20
2023-03-12T05:00:13.297Z,-0.08
2023-03-12T05:02:42.910Z,-0.32
2023-03-12T05:05:12.581Z,-0.12
2023-03-12T05:07:40.477Z,-0.32
2023-03-12T05:10:09.340Z,-0.33
2023-03-12T05:12:37.213Z,-0.36
2023-03-12T05:15:05.685Z,-0.31
2023-03-12T05:17:33.667Z,-0.30
2023-03-12T05:20:03.362Z,-0.39
2023-03-12T05:22:31.262Z,-0.53
2023-03-12T05:24:59.230Z,-0.53
2023-03-12T05:27:27.152Z,-0.49
2023-03-12T05:29:55.166Z,-0.42
2023-03-12T05:32:23.183Z,-0.47
2023-03-12T05:34:51.202Z,-0.32
2023-03-12T05:37:20.523Z,-0.24
2023-03-12T05:39:48.519Z,-0.23
2023-03-12T05:42:16.895Z,-0.17
2023-03-12T05:44:44.779Z,-0.07
2023-03-12T05:47:12.722Z,-0.22
2023-03-12T05:49:40.589Z,-0.11
2023-03-12T05:52:08.637Z,0.03
2023-03-12T05:54:38.004Z,-0.39
2023-03-12T05:57:06.192Z,-0.28
2023-03-12T05:59:34.125Z,-0.43
2023-03-12T06:02:02.115Z,-0.53
2023-03-12T06:04:30.511Z,-0.68
2023-03-12T06:06:58.409Z,-0.74
2023-03-12T06:09:26.376Z,-0.86
2023-03-12T06:11:55.648Z,-0.81
2023-03-12T06:14:23.564Z,-0.84
2023-03-12T06:16:51.552Z,-0.82
2023-03-12T06:19:19.464Z,-0.82
2023-03-12T06:21:47.360Z,-0.66
2023-03-12T06:24:15.345Z,-0.72
2023-03-12T06:26:43.360Z,-0.72
2023-03-12T06:29:12.651Z,-0.73
2023-03-12T06:31:42.212Z,-0.69
2023-03-12T06:34:11.248Z,-0.52
2023-03-12T06:36:39.312Z,-0.46
2023-03-12T06:39:08.776Z,-0.51
2023-03-12T06:41:37.131Z,-0.50
2023-03-12T06:44:06.526Z,-0.48
2023-03-12T06:46:37.088Z,-0.37
2023-03-12T06:49:05.673Z,-0.46
2023-03-12T06:51:33.581Z,-0.46
2023-03-12T06:54:02.664Z,-0.52
2023-03-12T06:56:31.082Z,-0.45
2023-03-12T06:58:59.001Z,-0.51
2023-03-12T07:01:27.338Z,-0.49
2023-03-12T07:03:56.625Z,-0.48
2023-03-12T07:06:25.508Z,-0.44
2023-03-12T07:08:53.737Z,-0.32
2023-03-12T07:11:21.663Z,-0.35
2023-03-12T07:13:49.601Z,-0.29
2023-03-12T07:16:17.540Z,-0.24
2023-03-12T07:18:45.464Z,-0.13
2023-03-12T07:21:16.651Z,-0.08
2023-03-12T07:23:44.615Z,0.03
2023-03-12T07:26:12.504Z,0.09
2023-03-12T07:28:40.403Z,0.25
2023-03-12T07:31:08.442Z,0.21
2023-03-12T07:33:36.559Z,0.19
2023-03-12T07:36:05.200Z,0.18
2023-03-12T07:38:34.578Z,0.38
2023-03-12T07:41:02.509Z,0.34
2023-03-12T07:43:30.557Z,0.42
2023-03-12T07:45:58.544Z,0.37
2023-03-12T07:48:26.480Z,0.29
2023-03-12T07:50:54.474Z,0.38
2023-03-12T07:53:22.842Z,0.44
2023-03-12T07:55:52.495Z,0.47
2023-03-12T07:58:20.504Z,0.72
2023-03-12T08:00:49.045Z,0.71
2023-03-12T08:03:17.661Z,0.87
2023-03-12T08:05:45.832Z,0.95
2023-03-12T08:08:13.860Z,1.06
2023-03-12T08:10:41.924Z,1.01
2023-03-12T08:13:11.290Z,0.98
2023-03-12T08:15:39.196Z,0.90
2023-03-12T08:18:07.231Z,0.91
2023-03-12T08:20:35.292Z,1.02
2023-03-12T08:23:03.281Z,1.01
2023-03-12T08:25:31.212Z,1.07
2023-03-12T08:27:59.206Z,1.22
2023-03-12T08:30:30.202Z,1.06
2023-03-12T08:32:58.697Z,1.18
2023-03-12T08:35:26.674Z,1.21
2023-03-12T08:37:54.619Z,1.29
2023-03-12T08:40:22.555Z,1.33
2023-03-12T08:42:50.481Z,1.34
2023-03-12T08:45:18.489Z,1.49
2023-03-12T08:47:47.835Z,1.56
2023-03-12T08:50:16.624Z,1.61
2023-03-12T08:52:45.017Z,1.73
2023-03-12T08:55:13.150Z,1.69
2023-03-12T08:57:42.292Z,1.54
2023-03-12T09:00:15.116Z,1.62
2023-03-12T09:02:45.021Z,1.64
2023-03-12T09:05:14.672Z,1.57
2023-03-12T09:07:42.886Z,1.59
2023-03-12T09:10:11.683Z,1.77
2023-03-12T09:12:39.607Z,1.75
2023-03-12T09:15:09.124Z,2.04
2023-03-12T09:17:37.617Z,2.07
2023-03-12T09:20:08.406Z,2.22
2023-03-12T09:22:38.092Z,2.36
2023-03-12T09:25:06.884Z,2.51
2023-03-12T09:27:37.723Z,2.46
2023-03-12T09:30:07.786Z,2.36
2023-03-12T09:32:35.799Z,2.37
2023-03-12T09:35:03.936Z,2.37
2023-03-12T09:37:32.680Z,2.52
2023-03-12T09:40:02.184Z,2.49
2023-03-12T09:42:41.563Z,2.65
2023-03-12T09:45:12.747Z,2.80
2023-03-12T09:47:47.074Z,2.91
2023-03-12T09:50:26.033Z,2.95
2023-03-12T09:52:59.947Z,3.06
2023-03-12T09:55:30.418Z,3.05
2023-03-12T09:57:59.363Z,3.08
2023-03-12T10:00:32.066Z,3.18
2023-03-12T10:03:24.644Z,3.06
2023-03-12T10:06:04.121Z,3.15
2023-03-12T10:08:40.442Z,3.27
2023-03-12T10:11:19.721Z,3.27
2023-03-12T10:13:55.471Z,3.36
2023-03-12T10:16:35.437Z,3.43
2023-03-12T10:19:22.233Z,3.55
2023-03-12T10:21:53.499Z,3.51
2023-03-12T10:24:32.355Z,3.80
2023-03-12T10:27:01.995Z,3.91
2023-03-12T10:29:31.888Z,3.88
2023-03-12T10:32:03.127Z,3.93
2023-03-12T10:34:37.689Z,3.99
2023-03-12T10:37:14.286Z,4.10
2023-03-12T10:39:42.397Z,4.28
2023-03-12T10:42:17.633Z,4.27
2023-03-12T10:44:47.254Z,4.47
2023-03-12T10:47:27.087Z,4.49
2023-03-12T10:49:55.096Z,4.63
2023-03-12T10:52:24.209Z,4.44
2023-03-12T10:54:53.899Z,4.45
2023-03-12T10:57:24.011Z,4.56
2023-03-12T10:59:51.956Z,4.41
2023-03-12T11:02:35.243Z,4.59
2023-03-12T11:05:04.387Z,4.55
2023-03-12T11:07:33.010Z,4.59
2023-03-12T11:10:21.002Z,4.41
2023-03-12T11:13:02.827Z,4.32
2023-03-12T11:15:39.185Z,4.31
2023-03-12T11:18:21.559Z,4.13
2023-03-12T11:20:50.269Z,4.13
2023-03-12T11:23:19.560Z,4.14
2023-03-12T11:25:53.930Z,4.06
2023-03-12T11:28:26.138Z,4.17
2023-03-12T11:30:55.301Z,4.11
2023-03-12T11:33:23.181Z,4.06
2023-03-12T11:36:04.388Z,3.96
2023-03-12T11:38:36.301Z,3.82
2023-03-12T11:41:17.481Z,3.93
2023-03-12T11:43:58.256Z,3.98
2023-03-12T11:46:39.130Z,3.82
2023-03-12T11:49:15.924Z,3.82
2023-03-12T11:51:48.832Z,3.74
2023-03-12T11:54:40.044Z,3.78
2023-03-12T11:57:11.373Z,3.89
2023-03-12T11:59:48.005Z,3.80
2023-03-12T12:02:27.910Z,3.95
2023-03-12T12:05:28.926Z,3.89
2023-03-12T12:08:08.457Z,3.88
2023-03-12T12:10:42.489Z,3.96
2023-03-12T12:13:16.427Z,3.97
2023-03-12T12:15:54.251Z,3.99
2023-03-12T12:18:32.965Z,4.04
2023-03-12T12:21:06.121Z,4.05
2023-03-12T12:23:44.214Z,3.79
2023-03-12T12:26:14.120Z,4.01
2023-03-12T12:29:06.101Z,3.93
2023-03-12T12:31:41.307Z,3.87
2023-03-12T12:34:38.013Z,3.73
2023-03-12T12:37:21.628Z,3.66
2023-03-12T12:39:54.465Z,3.36
2023-03-12T12:42:26.021Z,3.14
2023-03-12T12:44:55.195Z,3.02
2023-03-12T12:47:33.256Z,2.89
2023-03-12T12:50:01.627Z,2.99
2023-03-12T12:52:29.974Z,2.97
2023-03-12T12:55:03.466Z,3.15
2023-03-12T12:57:37.513Z,3.36
2023-03-12T13:00:16.469Z,3.43
2023-03-12T13:02:47.986Z,3.29
2023-03-12T13:05:21.894Z,3.59
2023-03-12T13:07:50.013Z,3.66
2023-03-12T13:10:53.007Z,3.65
2023-03-12T13:13:27.400Z,3.68
2023-03-12T13:16:19.325Z,3.21
2023-03-12T13:18:59.002Z,3.28
2023-03-12T13:21:31.416Z,3.24
2023-03-12T13:24:10.772Z,3.48
2023-03-12T13:26:50.483Z,3.58
2023-03-12T13:29:24.557Z,3.19
2023-03-12T13:31:52.498Z,3.24
2023-03-12T13:34:47.769Z,2.92
2023-03-12T13:38:00.104Z,3.02
2023-03-12T13:40:55.947Z,2.79
2023-03-12T13:43:49.915Z,2.68
2023-03-12T13:46:38.153Z,2.70
2023-03-12T13:49:12.388Z,2.74
2023-03-12T13:52:00.855Z,2.65
2023-03-12T13:54:34.832Z,2.75
2023-03-12T13:57:05.169Z,2.84
2023-03-12T13:59:33.586Z,2.57
2023-03-12T14:02:06.337Z,2.59
2023-03-12T14:04:39.458Z,2.61
2023-03-12T14:07:24.725Z,2.67
2023-03-12T14:09:58.408Z,2.94
2023-03-12T14:12:31.897Z,2.65
2023-03-12T14:15:08.275Z,2.83
2023-03-12T14:17:37.741Z,2.84
2023-03-12T14:20:13.198Z,2.42
2023-03-12T14:22:44.995Z,2.43
2023-03-12T14:25:16.021Z,2.41
2023-03-12T14:27:47.153Z,2.44
2023-03-12T14:30:22.946Z,2.35
2023-03-12T14:32:54.036Z,2.37
2023-03-12T14:35:23.845Z,2.29
2023-03-12T14:37:58.528Z,1.99
2023-03-12T14:40:31.781Z,2.10
2023-03-12T14:43:01.276Z,1.94
2023-03-12T14:45:30.102Z,1.93
2023-03-12T14:47:59.279Z,2.06
2023-03-12T14:50:29.128Z,2.21
2023-03-12T14:53:13.560Z,2.18
2023-03-12T14:55:42.064Z,2.14
2023-03-12T14:58:17.849Z,2.37
2023-03-12T15:00:47.031Z,2.31
2023-03-12T15:03:17.171Z,2.30
2023-03-12T15:05:47.362Z,2.39
2023-03-12T15:08:17.856Z,2.54
2023-03-12T15:10:49.187Z,2.48
2023-03-12T15:13:18.213Z,2.31
2023-03-12T15:15:49.648Z,2.24
2023-03-12T15:18:20.171Z,2.31
2023-03-12T15:20:48.824Z,2.37
2023-03-12T15:23:19.846Z,2.29
2023-03-12T15:25:47.889Z,2.13
2023-03-12T15:28:29.354Z,2.22
2023-03-12T15:31:13.891Z,2.26
2023-03-12T15:33:42.805Z,2.18
2023-03-12T15:36:27.227Z,2.25
2023-03-12T15:39:00.327Z,2.35
2023-03-12T15:41:29.835Z,2.33
2023-03-12T15:43:59.805Z,2.43
2023-03-12T15:46:28.862Z,2.31
2023-03-12T15:48:58.277Z,2.29
2023-03-12T15:51:34.463Z,2.34
2023-03-12T15:54:05.802Z,2.34
2023-03-12T15:56:35.922Z,2.37
2023-03-12T15:59:06.821Z,2.32
2023-03-12T16:01:46.264Z,2.33
2023-03-12T16:04:14.482Z,2.34
2023-03-12T16:06:44.288Z,2.36
2023-03-12T16:09:16.939Z,2.41
2023-03-12T16:11:45.268Z,2.43
2023-03-12T16:14:17.744Z,2.39
2023-03-12T16:16:46.138Z,2.44
2023-03-12T16:19:15.160Z,2.43
2023-03-12T16:21:44.912Z,2.50
2023-03-12T16:24:16.492Z,2.54
2023-03-12T16:26:48.424Z,2.53
2023-03-12T16:29:18.133Z,2.51
2023-03-12T16:31:46.169Z,2.48
2023-03-12T16:34:14.314Z,2.50
2023-03-12T16:36:42.241Z,2.51
2023-03-12T16:39:10.160Z,2.61
2023-03-12T16:41:39.874Z,2.56
2023-03-12T16:44:08.579Z,2.64
2023-03-12T16:46:36.608Z,2.69
2023-03-12T16:49:04.900Z,2.78
2023-03-12T16:51:32.817Z,2.81
2023-03-12T16:54:09.783Z,2.84
2023-03-12T16:56:42.712Z,2.89
2023-03-12T16:59:17.738Z,2.96
2023-03-12T17:01:45.738Z,2.96
2023-03-12T17:04:13.664Z,3.03
2023-03-12T17:06:41.652Z,3.06
2023-03-12T17:09:09.661Z,3.08
2023-03-12T17:11:39.528Z,3.13
2023-03-12T17:14:17.121Z,3.05
2023-03-12T17:16:45.375Z,3.19
2023-03-12T17:19:13.374Z,3.24
2023-03-12T17:21:41.569Z,3.24
2023-03-12T17:24:11.182Z,3.56
2023-03-12T17:26:39.150Z,3.44
2023-03-12T17:29:07.164Z,3.58
2023-03-12T17:31:37.595Z,3.73
2023-03-12T17:34:05.786Z,3.70
2023-03-12T17:36:37.198Z,3.66
2023-03-12T17:39:05.658Z,3.72
2023-03-12T17:41:33.860Z,3.81
2023-03-12T17:44:03.770Z,3.85
2023-03-12T17:46:32.319Z,4.00
2023-03-12T17:49:02.126Z,4.10
2023-03-12T17:51:30.037Z,4.11
2023-03-12T17:53:57.937Z,4.08
2023-03-12T17:56:25.903Z,4.27
2023-03-12T17:58:53.844Z,4.17
2023-03-12T18:01:21.774Z,4.17
2023-03-12T18:03:51.255Z,4.23
2023-03-12T18:06:20.592Z,4.30
2023-03-12T18:08:48.497Z,4.38
2023-03-12T18:11:16.671Z,4.18
2023-03-12T18:13:44.585Z,4.31
2023-03-12T18:16:12.599Z,4.31
2023-03-12T18:18:40.573Z,4.37
2023-03-12T18:21:08.531Z,4.25
2023-03-12T18:23:37.832Z,4.38
2023-03-12T18:26:06.135Z,4.56
2023-03-12T18:28:34.031Z,4.56
2023-03-12T18:31:02.002Z,4.58
2023-03-12T18:33:30.791Z,4.62
2023-03-12T18:35:58.864Z,4.89
2023-03-12T18:38:26.881Z,4.86
2023-03-12T18:41:03.384Z,4.68
2023-03-12T18:43:31.552Z,4.88
2023-03-12T18:45:59.473Z,4.91
2023-03-12T18:48:27.523Z,4.94
2023-03-12T18:50:55.683Z,5.00
2023-03-12T18:53:23.620Z,5.15
2023-03-12T18:55:53.014Z,5.24
2023-03-12T18:58:22.645Z,5.47
2023-03-12T19:00:52.362Z,5.20
2023-03-12T19:03:20.738Z,5.23
2023-03-12T19:05:48.667Z,5.19
2023-03-12T19:08:17.124Z,5.05
2023-03-12T19:10:46.096Z,5.50
2023-03-12T19:13:14.034Z,5.44
2023-03-12T19:15:43.859Z,5.22
2023-03-12T19:18:11.774Z,5.62
2023-03-12T19:20:39.890Z,5.78
2023-03-12T19:23:07.854Z,5.62
2023-03-12T19:25:35.772Z,5.61
2023-03-12T19:28:03.663Z,5.80
2023-03-12T19:30:33.116Z,5.63
2023-03-12T19:33:02.491Z,5.89
2023-03-12T19:35:30.643Z,5.89
2023-03-12T19:37:59.618Z,5.97
2023-03-12T19:40:27.588Z,5.99
2023-03-12T19:42:55.527Z,6.19
2023-03-12T19:45:23.431Z,5.83
2023-03-12T19:47:52.246Z,6.23
2023-03-12T19:50:21.657Z,6.14
2023-03-12T19:52:49.585Z,5.93
2023-03-12T19:55:17.801Z,6.12
2023-03-12T19:57:45.774Z,6.02
2023-03-12T20:00:14.957Z,6.21
2023-03-12T20:02:43.123Z,6.22
2023-03-12T20:05:11.495Z,6.15
2023-03-12T20:07:41.427Z,6.11
2023-03-12T20:10:11.020Z,6.06
2023-03-12T20:12:39.470Z,5.94
2023-03-12T20:15:08.390Z,6.30
2023-03-12T20:17:36.422Z,5.92
2023-03-12T20:20:05.868Z,6.29
2023-03-12T20:22:36.303Z,6.23
2023-03-12T20:25:06.852Z,6.04
2023-03-12T20:27:35.330Z,5.99
2023-03-12T20:30:04.186Z,5.88
2023-03-12T20:32:32.153Z,6.25
2023-03-12T20:35:00.163Z,6.31
2023-03-12T20:37:28.094Z,6.41
2023-03-12T20:39:56.156Z,6.07
2023-03-12T20:42:25.461Z,6.25
2023-03-12T20:44:53.396Z,6.01
2023-03-12T20:47:21.272Z,6.46
2023-03-12T20:49:49.305Z,6.26
2023-03-12T20:52:17.216Z,6.15
2023-03-12T20:54:45.141Z,6.30
2023-03-12T20:57:13.043Z,6.55
2023-03-12T20:59:42.376Z,6.37
2023-03-12T21:02:13.923Z,6.38
2023-03-12T21:04:42.981Z,6.37
2023-03-12T21:07:11.024Z,6.31
2023-03-12T21:09:38.951Z,6.42
2023-03-12T21:12:07.114Z,6.27
2023-03-12T21:14:35.018Z,6.36
2023-03-12T21:17:04.593Z,6.38
2023-03-12T21:19:32.513Z,6.04
2023-03-12T21:22:00.480Z,6.13
2023-03-12T21:24:28.372Z,6.16
2023-03-12T21:26:56.299Z,6.24
2023-03-12T21:29:24.220Z,6.28
2023-03-12T21:31:53.836Z,6.33
2023-03-12T21:34:23.620Z,6.13
2023-03-12T21:36:51.674Z,6.21
2023-03-12T21:39:19.630Z,6.19
2023-03-12T21:41:47.519Z,6.10
2023-03-12T21:44:16.667Z,6.11
2023-03-12T21:46:44.823Z,5.97
2023-03-12T21:49:14.200Z,5.89
2023-03-12T21:51:43.514Z,6.01
2023-03-12T21:54:11.725Z,5.92
2023-03-12T21:56:41.759Z,5.93
2023-03-12T21:59:10.569Z,6.06
2023-03-12T22:01:38.608Z,6.12
2023-03-12T22:04:06.621Z,6.10
2023-03-12T22:06:34.578Z,5.91
2023-03-12T22:09:04.107Z,6.21
2023-03-12T22:11:32.092Z,6.27
2023-03-12T22:14:00.011Z,6.30
2023-03-12T22:16:28.000Z,6.25
2023-03-12T22:18:56.090Z,6.19
2023-03-12T22:21:24.800Z,6.06
2023-03-12T22:23:54.338Z,6.24
2023-03-12T22:26:25.480Z,6.02
2023-03-12T22:28:54.795Z,6.19
2023-03-12T22:31:24.530Z,5.94
2023-03-12T22:33:52.851Z,6.25
2023-03-12T22:36:21.438Z,6.34
2023-03-12T22:38:49.509Z,6.32
2023-03-12T22:41:19.327Z,6.26
2023-03-12T22:43:49.306Z,6.09
2023-03-12T22:46:18.566Z,6.21
2023-03-12T22:48:47.688Z,6.26
2023-03-12T22:51:15.576Z,6.28
2023-03-12T22:53:43.512Z,6.15
2023-03-12T22:56:12.716Z,6.37
2023-03-12T22:58:41.068Z,6.43
2023-03-12T23:01:11.983Z,6.31
2023-03-12T23:03:41.820Z,6.16
2023-03-12T23:06:10.711Z,6.31
2023-03-12T23:08:39.239Z,6.15
2023-03-12T23:11:08.017Z,6.13
2023-03-12T23:13:37.215Z,6.02
2023-03-12T23:16:06.076Z,6.20
2023-03-12T23:18:36.382Z,6.34
2023-03-12T23:21:06.833Z,6.20
2023-03-12T23:23:35.528Z,6.30
2023-03-12T23:26:04.173Z,6.27
2023-03-12T23:28:32.509Z,6.24
2023-03-12T23:31:02.638Z,6.23
2023-03-12T23:33:31.836Z,6.52
2023-03-12T23:36:03.530Z,6.64
2023-03-12T23:38:32.522Z,6.44
2023-03-12T23:41:01.901Z,6.39
2023-03-12T23:43:30.081Z,6.37
2023-03-12T23:45:58.781Z,6.46
2023-03-12T23:48:26.982Z,6.39
2023-03-12T23:50:54.915Z,6.60
2023-03-12T23:53:24.212Z,6.42
2023-03-12T23:56:02.526Z,6.74
2023-03-12T23:58:30.598Z,6.74
